Time;durP1;ratioP1;P1;durP2;ratioP2;P2;SDS_P1;SDS_P2;PMS_P1;PMS_P2;Temp;Humidity;BMP_temperature;BMP_pressure;BME280_temperature;BME280_humidity;BME280_pressure;Samples;Min_cycle;Max_cycle;Signal;HPM_P1;HPM_P2
2023/06/17 00:02:12;;;;;;;6.22;3.10;;;;;;;;;;4994957;28;20034;-71
2023/06/17 00:04:37;;;;;;;5.43;3.17;;;;;;;;;;4998904;28;20384;-73
2023/06/17 00:07:03;;;;;;;8.13;3.30;;;;;;;;;;5001200;28;20038;-72
2023/06/17 00:09:29;;;;;;;7.13;3.72;;;;;;;;;;4993437;28;20019;-72
2023/06/17 00:11:56;;;;;;;9.60;3.55;;;;;;;;;;4988322;28;20459;-72
2023/06/17 00:14:22;;;;;;;9.98;3.90;;;;;;;;;;4992842;28;20038;-72
2023/06/17 00:16:48;;;;;;;8.65;3.22;;;;;;;;;;4990344;28;20480;-71
2023/06/17 00:19:17;;;;;;;6.97;3.15;;;;;;;;;;4998863;28;20046;-72
2023/06/17 00:21:44;;;;;;;6.07;3.40;;;;;;;;;;4997578;28;20030;-72
2023/06/17 00:24:12;;;;;;;8.45;3.83;;;;;;;;;;4992353;28;20065;-71
2023/06/17 00:26:38;;;;;;;5.57;3.20;;;;;;;;;;5000390;28;20026;-71
2023/06/17 00:29:07;;;;;;;5.30;3.00;;;;;;;;;;4992623;28;20036;-72
2023/06/17 00:31:33;;;;;;;9.73;3.95;;;;;;;;;;4982524;28;20482;-72
2023/06/17 00:33:59;;;;;;;6.00;3.00;;;;;;;;;;4998611;28;20026;-72
2023/06/17 00:36:26;;;;;;;6.38;3.30;;;;;;;;;;4990594;28;20069;-72
2023/06/17 00:38:51;;;;;;;5.32;3.42;;;;;;;;;;4994665;28;20022;-72
2023/06/17 00:41:17;;;;;;;4.50;3.30;;;;;;;;;;4989758;28;20108;-72
2023/06/17 00:43:43;;;;;;;5.68;3.15;;;;;;;;;;4995211;28;20060;-72
2023/06/17 00:46:34;;;;;;;6.07;3.08;;;;;;;;;;4993167;28;20030;-72
2023/06/17 00:49:00;;;;;;;8.50;3.67;;;;;;;;;;4994365;28;20477;-72
2023/06/17 00:51:26;;;;;;;7.57;3.80;;;;;;;;;;4989719;28;20038;-72
2023/06/17 00:53:52;;;;;;;4.65;2.90;;;;;;;;;;4990315;28;20571;-72
2023/06/17 00:56:18;;;;;;;5.50;3.10;;;;;;;;;;4955979;28;20037;-72
2023/06/17 00:58:45;;;;;;;4.95;2.85;;;;;;;;;;4989394;28;20428;-71
2023/06/17 01:01:10;;;;;;;6.95;3.00;;;;;;;;;;4998605;28;20387;-73
2023/06/17 01:03:36;;;;;;;5.68;3.30;;;;;;;;;;4993856;28;20040;-71
2023/06/17 01:06:12;;;;;;;5.18;3.40;;;;;;;;;;5001081;28;20037;-72
2023/06/17 01:09:02;;;;;;;6.63;3.15;;;;;;;;;;4992328;28;20070;-72
2023/06/17 01:11:30;;;;;;;4.65;3.05;;;;;;;;;;4990705;28;20424;-71
2023/06/17 01:13:56;;;;;;;6.22;3.10;;;;;;;;;;4989789;28;20026;-72
2023/06/17 01:16:26;;;;;;;5.10;3.17;;;;;;;;;;4992788;28;20101;-71
2023/06/17 01:18:53;;;;;;;9.52;3.15;;;;;;;;;;4995004;28;20034;-72
2023/06/17 01:21:20;;;;;;;6.05;3.10;;;;;;;;;;4990553;28;20113;-71
2023/06/17 01:23:53;;;;;;;4.78;3.10;;;;;;;;;;4990855;28;20069;-71
2023/06/17 01:26:22;;;;;;;4.17;3.10;;;;;;;;;;4997542;28;20108;-72
2023/06/17 01:28:50;;;;;;;5.20;3.03;;;;;;;;;;4992282;28;20260;-71
2023/06/17 01:31:19;;;;;;;8.63;3.30;;;;;;;;;;4990421;28;20042;-72
2023/06/17 01:33:48;;;;;;;6.57;3.00;;;;;;;;;;4997683;28;20113;-72
2023/06/17 01:36:22;;;;;;;4.85;3.30;;;;;;;;;;4990630;28;20029;-72
2023/06/17 01:39:03;;;;;;;6.18;3.80;;;;;;;;;;4989484;28;20040;-72
2023/06/17 01:41:37;;;;;;;10.43;3.55;;;;;;;;;;4988734;28;20489;-71
2023/06/17 01:44:05;;;;;;;12.18;3.60;;;;;;;;;;4988649;28;20046;-72
2023/06/17 01:46:31;;;;;;;7.22;3.63;;;;;;;;;;4990588;28;20034;-72
2023/06/17 01:48:57;;;;;;;9.70;4.35;;;;;;;;;;4967532;28;20480;-72
2023/06/17 01:51:23;;;;;;;11.13;3.78;;;;;;;;;;4988650;28;20026;-72
2023/06/17 01:53:50;;;;;;;8.65;4.07;;;;;;;;;;4988642;28;20044;-72
2023/06/17 01:56:16;;;;;;;6.50;3.55;;;;;;;;;;4987866;28;20034;-72
2023/06/17 01:58:42;;;;;;;7.60;3.65;;;;;;;;;;4989255;28;20053;-72
2023/06/17 02:01:10;;;;;;;14.73;3.88;;;;;;;;;;4969506;28;20457;-73
2023/06/17 02:03:38;;;;;;;16.70;4.03;;;;;;;;;;4990292;28;20109;-72
2023/06/17 02:06:03;;;;;;;9.48;4.57;;;;;;;;;;4989224;28;20071;-70
2023/06/17 02:08:34;;;;;;;12.65;4.57;;;;;;;;;;4982956;28;20023;-71
2023/06/17 02:11:02;;;;;;;9.23;4.53;;;;;;;;;;4976856;28;20058;-73
2023/06/17 02:13:27;;;;;;;7.63;3.58;;;;;;;;;;4980727;28;20077;-72
2023/06/17 02:15:53;;;;;;;13.07;4.13;;;;;;;;;;4983857;28;20063;-71
2023/06/17 02:18:19;;;;;;;9.90;3.67;;;;;;;;;;4985819;28;20064;-70
2023/06/17 02:20:46;;;;;;;13.10;4.57;;;;;;;;;;4982319;28;20061;-71
2023/06/17 02:23:12;;;;;;;9.77;4.43;;;;;;;;;;4981601;28;20099;-71
2023/06/17 02:25:39;;;;;;;15.65;4.65;;;;;;;;;;4981566;28;20034;-72
2023/06/17 02:28:06;;;;;;;8.32;3.83;;;;;;;;;;4991027;28;20064;-72
2023/06/17 02:30:32;;;;;;;7.63;4.00;;;;;;;;;;4985335;28;20119;-73
2023/06/17 02:32:59;;;;;;;8.63;3.92;;;;;;;;;;4984432;28;20022;-72
2023/06/17 02:35:25;;;;;;;11.05;4.40;;;;;;;;;;4984624;28;20031;-72
2023/06/17 02:37:52;;;;;;;7.47;4.22;;;;;;;;;;4987924;28;20056;-71
2023/06/17 02:40:18;;;;;;;12.23;4.53;;;;;;;;;;4987773;28;20034;-71
2023/06/17 02:42:43;;;;;;;14.55;4.47;;;;;;;;;;4993480;28;20022;-72
2023/06/17 02:45:12;;;;;;;11.38;5.50;;;;;;;;;;4985691;28;20062;-72
2023/06/17 02:47:40;;;;;;;12.90;4.75;;;;;;;;;;4986791;28;20109;-72
2023/06/17 02:50:07;;;;;;;16.65;5.55;;;;;;;;;;4992581;28;20176;-73
2023/06/17 02:52:37;;;;;;;10.20;5.80;;;;;;;;;;4987778;28;20037;-74
2023/06/17 02:55:05;;;;;;;15.18;5.20;;;;;;;;;;4993621;28;20078;-72
2023/06/17 02:57:30;;;;;;;7.88;5.30;;;;;;;;;;4982992;28;20070;-72
2023/06/17 02:59:57;;;;;;;11.23;5.35;;;;;;;;;;4982191;28;20091;-72
2023/06/17 03:02:23;;;;;;;14.27;6.10;;;;;;;;;;4982925;28;20069;-72
2023/06/17 03:04:53;;;;;;;10.57;5.25;;;;;;;;;;4978434;28;20688;-71
2023/06/17 03:07:19;;;;;;;16.02;6.15;;;;;;;;;;4978994;28;20023;-71
2023/06/17 03:09:46;;;;;;;12.23;6.80;;;;;;;;;;4995716;28;20034;-70
2023/06/17 03:12:12;;;;;;;11.43;6.20;;;;;;;;;;4978852;28;20369;-71
2023/06/17 03:14:38;;;;;;;14.05;6.63;;;;;;;;;;4983035;28;20042;-70
2023/06/17 03:17:10;;;;;;;12.40;6.40;;;;;;;;;;4983390;28;20173;-71
2023/06/17 03:19:37;;;;;;;12.68;6.32;;;;;;;;;;4982131;28;20037;-71
2023/06/17 03:22:03;;;;;;;14.18;6.55;;;;;;;;;;4981219;28;20030;-70
2023/06/17 03:24:31;;;;;;;9.30;6.45;;;;;;;;;;4984457;28;20058;-71
2023/06/17 03:26:58;;;;;;;15.30;7.30;;;;;;;;;;4983583;28;20518;-71
2023/06/17 03:29:24;;;;;;;14.10;6.03;;;;;;;;;;4982243;28;20492;-71
2023/06/17 03:31:56;;;;;;;15.65;6.03;;;;;;;;;;4985409;28;20304;-70
2023/06/17 03:34:24;;;;;;;9.93;5.85;;;;;;;;;;4989679;28;20058;-71
2023/06/17 03:36:50;;;;;;;10.77;6.05;;;;;;;;;;4978866;28;20469;-71
2023/06/17 03:39:16;;;;;;;13.50;6.35;;;;;;;;;;4985976;28;20077;-71
2023/06/17 03:41:42;;;;;;;17.60;7.05;;;;;;;;;;4987678;28;20480;-71
2023/06/17 03:44:08;;;;;;;18.23;8.02;;;;;;;;;;4986581;28;20045;-72
2023/06/17 03:46:34;;;;;;;15.27;7.07;;;;;;;;;;4994208;28;20045;-71
2023/06/17 03:49:02;;;;;;;15.18;7.68;;;;;;;;;;4990971;28;20492;-71
2023/06/17 03:51:28;;;;;;;14.77;6.95;;;;;;;;;;4988378;28;20045;-71
2023/06/17 03:53:54;;;;;;;11.80;6.60;;;;;;;;;;4986723;28;20026;-71
2023/06/17 03:56:22;;;;;;;17.45;7.10;;;;;;;;;;4984139;28;20089;-71
2023/06/17 03:58:48;;;;;;;13.82;6.85;;;;;;;;;;4995140;28;20523;-71
2023/06/17 04:01:15;;;;;;;17.23;5.88;;;;;;;;;;4988558;28;20030;-73
2023/06/17 04:03:41;;;;;;;12.63;5.97;;;;;;;;;;4974550;28;20184;-71
2023/06/17 04:06:08;;;;;;;15.63;5.95;;;;;;;;;;4996267;28;20018;-71
2023/06/17 04:08:35;;;;;;;13.13;6.20;;;;;;;;;;4986936;28;20038;-71
2023/06/17 04:11:02;;;;;;;11.68;6.03;;;;;;;;;;4982634;28;20038;-70
2023/06/17 04:13:28;;;;;;;10.88;6.57;;;;;;;;;;4989321;28;20030;-71
2023/06/17 04:15:54;;;;;;;12.95;5.90;;;;;;;;;;4986250;28;20377;-71
2023/06/17 04:18:20;;;;;;;12.13;6.13;;;;;;;;;;4993974;28;20416;-70
2023/06/17 04:20:46;;;;;;;10.32;6.30;;;;;;;;;;4993476;28;20113;-71
2023/06/17 04:23:12;;;;;;;12.32;5.95;;;;;;;;;;4985791;28;20129;-71
2023/06/17 04:25:38;;;;;;;9.45;5.47;;;;;;;;;;5019188;28;20101;-71
2023/06/17 04:28:07;;;;;;;7.90;5.25;;;;;;;;;;5003192;28;20029;-71
2023/06/17 04:30:34;;;;;;;8.43;5.53;;;;;;;;;;4987369;28;20469;-71
2023/06/17 04:33:00;;;;;;;9.80;5.22;;;;;;;;;;4991802;28;20046;-71
2023/06/17 04:35:27;;;;;;;11.43;5.70;;;;;;;;;;4989368;28;20026;-71
2023/06/17 04:37:56;;;;;;;15.52;6.13;;;;;;;;;;4992685;28;20039;-72
2023/06/17 04:40:23;;;;;;;13.00;6.78;;;;;;;;;;4990514;28;20092;-71
2023/06/17 04:42:50;;;;;;;10.88;6.35;;;;;;;;;;4989854;28;20057;-71
2023/06/17 04:45:17;;;;;;;10.80;5.78;;;;;;;;;;4980172;28;20507;-70
2023/06/17 04:47:45;;;;;;;8.20;5.97;;;;;;;;;;4985357;28;20038;-70
2023/06/17 04:50:16;;;;;;;9.50;6.15;;;;;;;;;;4988542;28;20034;-71
2023/06/17 04:52:47;;;;;;;14.57;6.20;;;;;;;;;;4990163;28;20034;-72
2023/06/17 04:55:14;;;;;;;11.43;6.10;;;;;;;;;;4989693;28;20085;-72
2023/06/17 04:57:43;;;;;;;14.07;6.28;;;;;;;;;;4987403;28;20241;-71
2023/06/17 05:00:10;;;;;;;8.70;6.03;;;;;;;;;;4988190;28;20058;-71
2023/06/17 05:02:38;;;;;;;9.50;5.90;;;;;;;;;;4987565;28;20037;-72
2023/06/17 05:05:05;;;;;;;8.65;5.97;;;;;;;;;;4989097;28;20121;-72
2023/06/17 05:07:34;;;;;;;11.90;6.43;;;;;;;;;;4990444;28;20030;-72
2023/06/17 05:10:00;;;;;;;9.63;5.68;;;;;;;;;;4990708;28;20035;-71
2023/06/17 05:12:26;;;;;;;11.20;6.10;;;;;;;;;;4990794;28;20390;-72
2023/06/17 05:14:53;;;;;;;10.93;6.18;;;;;;;;;;5004078;28;20538;-71
2023/06/17 05:17:19;;;;;;;10.07;5.57;;;;;;;;;;4995805;28;20081;-72
2023/06/17 05:19:45;;;;;;;8.38;5.68;;;;;;;;;;4994938;28;20033;-72
2023/06/17 05:22:13;;;;;;;12.02;6.18;;;;;;;;;;4993401;28;20037;-70
2023/06/17 05:24:39;;;;;;;7.53;5.85;;;;;;;;;;4975282;28;20401;-71
2023/06/17 05:27:06;;;;;;;9.05;6.38;;;;;;;;;;4988450;28;20043;-71
2023/06/17 05:29:32;;;;;;;8.10;6.07;;;;;;;;;;4993512;28;20109;-71
2023/06/17 05:31:58;;;;;;;10.40;6.38;;;;;;;;;;5009981;28;20168;-71
2023/06/17 05:34:24;;;;;;;8.88;6.57;;;;;;;;;;5000435;28;20064;-72
2023/06/17 05:36:50;;;;;;;7.63;5.38;;;;;;;;;;5003081;28;20388;-72
2023/06/17 05:39:16;;;;;;;8.63;5.72;;;;;;;;;;4996151;28;20041;-71
2023/06/17 05:41:41;;;;;;;7.82;5.35;;;;;;;;;;4987955;28;20039;-71
2023/06/17 05:44:08;;;;;;;8.35;5.90;;;;;;;;;;4991897;28;20056;-71
2023/06/17 05:46:34;;;;;;;10.02;6.05;;;;;;;;;;4994111;28;20035;-72
2023/06/17 05:49:00;;;;;;;9.68;5.93;;;;;;;;;;4989387;28;20030;-72
2023/06/17 05:51:28;;;;;;;8.63;5.20;;;;;;;;;;4999319;28;20030;-71
2023/06/17 05:53:55;;;;;;;12.65;5.65;;;;;;;;;;4991398;28;20041;-72
2023/06/17 05:56:21;;;;;;;10.32;6.38;;;;;;;;;;4991698;28;20056;-72
2023/06/17 05:58:47;;;;;;;9.05;6.60;;;;;;;;;;5005308;28;20551;-70
2023/06/17 06:01:24;;;;;;;12.35;7.00;;;;;;;;;;4991419;28;20046;-71
2023/06/17 06:03:50;;;;;;;9.63;6.40;;;;;;;;;;4991755;28;20567;-71
2023/06/17 06:06:16;;;;;;;10.90;6.15;;;;;;;;;;4991823;28;20122;-71
2023/06/17 06:08:44;;;;;;;12.10;6.28;;;;;;;;;;4991451;28;20025;-72
2023/06/17 06:11:10;;;;;;;13.00;6.82;;;;;;;;;;4988390;28;20041;-71
2023/06/17 06:13:35;;;;;;;10.40;6.25;;;;;;;;;;4994012;28;20073;-72
2023/06/17 06:16:01;;;;;;;12.88;6.82;;;;;;;;;;4991802;28;20053;-71
2023/06/17 06:18:27;;;;;;;11.35;5.90;;;;;;;;;;4989931;28;20499;-70
2023/06/17 06:20:53;;;;;;;10.40;5.70;;;;;;;;;;4993064;28;20030;-72
2023/06/17 06:23:20;;;;;;;11.20;5.93;;;;;;;;;;4995525;28;20026;-72
2023/06/17 06:25:46;;;;;;;12.57;6.10;;;;;;;;;;5003971;28;20041;-72
2023/06/17 06:28:12;;;;;;;14.35;5.75;;;;;;;;;;4992362;28;20034;-72
2023/06/17 06:30:38;;;;;;;6.00;4.13;;;;;;;;;;4992261;28;20026;-73
2023/06/17 06:33:04;;;;;;;7.63;4.43;;;;;;;;;;4996030;28;20045;-75
2023/06/17 06:35:30;;;;;;;11.85;5.13;;;;;;;;;;4991930;28;20033;-72
2023/06/17 06:37:56;;;;;;;10.77;4.43;;;;;;;;;;4990674;28;20031;-72
2023/06/17 06:40:23;;;;;;;23.20;5.18;;;;;;;;;;4993506;28;20030;-73
2023/06/17 06:42:50;;;;;;;6.90;4.55;;;;;;;;;;4987722;28;20035;-72
2023/06/17 06:45:22;;;;;;;11.65;5.60;;;;;;;;;;5000797;28;20030;-72
2023/06/17 06:47:48;;;;;;;9.10;4.53;;;;;;;;;;4988757;28;20038;-71
2023/06/17 06:50:15;;;;;;;14.05;4.53;;;;;;;;;;4986905;28;20149;-72
2023/06/17 06:52:42;;;;;;;19.75;5.32;;;;;;;;;;4990865;28;20072;-72
2023/06/17 06:55:09;;;;;;;14.00;5.20;;;;;;;;;;4992569;28;20054;-73
2023/06/17 06:57:37;;;;;;;16.30;4.55;;;;;;;;;;5023928;28;20041;-72
2023/06/17 07:00:08;;;;;;;22.08;5.70;;;;;;;;;;4993410;28;20022;-73
2023/06/17 07:02:36;;;;;;;11.20;4.47;;;;;;;;;;4997102;28;20042;-73
2023/06/17 07:05:04;;;;;;;8.55;3.95;;;;;;;;;;5000086;28;20057;-71
2023/06/17 07:07:36;;;;;;;5.65;3.58;;;;;;;;;;4988539;28;20078;-73
2023/06/17 07:10:02;;;;;;;11.60;3.90;;;;;;;;;;4994964;28;20077;-73
2023/06/17 07:12:28;;;;;;;13.85;4.57;;;;;;;;;;4975248;28;20092;-73
2023/06/17 07:14:54;;;;;;;15.75;4.35;;;;;;;;;;4996382;28;20038;-74
2023/06/17 07:17:20;;;;;;;18.60;4.90;;;;;;;;;;4988769;28;20424;-73
2023/06/17 07:19:47;;;;;;;24.00;6.50;;;;;;;;;;4993918;28;20035;-74
2023/06/17 07:22:13;;;;;;;15.18;4.60;;;;;;;;;;4989573;28;20090;-73
2023/06/17 07:24:39;;;;;;;24.17;4.60;;;;;;;;;;4992288;28;20444;-73
2023/06/17 07:27:06;;;;;;;27.67;5.78;;;;;;;;;;4992605;28;20407;-71
2023/06/17 07:29:32;;;;;;;29.00;6.97;;;;;;;;;;4988553;28;20035;-73
2023/06/17 07:31:59;;;;;;;46.72;7.00;;;;;;;;;;4992651;28;20126;-73
2023/06/17 07:34:27;;;;;;;25.85;6.47;;;;;;;;;;4988249;28;20053;-74
2023/06/17 07:36:52;;;;;;;18.80;5.05;;;;;;;;;;4983848;28;20472;-74
2023/06/17 07:39:21;;;;;;;8.52;4.03;;;;;;;;;;4993008;28;20396;-73
2023/06/17 07:41:48;;;;;;;19.88;5.20;;;;;;;;;;4987157;28;20094;-72
2023/06/17 07:44:14;;;;;;;17.40;5.00;;;;;;;;;;4992766;28;20556;-74
2023/06/17 07:46:41;;;;;;;14.45;4.07;;;;;;;;;;4994799;28;20181;-73
2023/06/17 07:49:07;;;;;;;10.23;3.85;;;;;;;;;;4987689;28;20053;-74
2023/06/17 07:51:32;;;;;;;14.45;4.50;;;;;;;;;;4986222;28;20554;-72
2023/06/17 07:53:58;;;;;;;20.65;5.10;;;;;;;;;;4988524;28;20038;-73
2023/06/17 07:56:27;;;;;;;21.40;4.28;;;;;;;;;;4986132;28;20101;-74
2023/06/17 07:58:55;;;;;;;15.32;3.88;;;;;;;;;;4988407;28;20026;-73
2023/06/17 08:01:22;;;;;;;10.07;3.28;;;;;;;;;;4969121;28;20208;-73
2023/06/17 08:03:51;;;;;;;9.77;4.13;;;;;;;;;;4989945;28;20393;-74
2023/06/17 08:06:17;;;;;;;8.35;3.72;;;;;;;;;;4987307;28;20117;-76
2023/06/17 08:08:43;;;;;;;12.02;4.68;;;;;;;;;;4988945;28;20109;-73
2023/06/17 08:11:10;;;;;;;9.13;4.22;;;;;;;;;;4990847;28;20042;-73
2023/06/17 08:13:35;;;;;;;16.80;5.15;;;;;;;;;;4993170;28;20100;-74
2023/06/17 08:16:02;;;;;;;10.02;3.72;;;;;;;;;;4991724;28;20109;-75
2023/06/17 08:18:28;;;;;;;11.55;4.05;;;;;;;;;;4987174;28;20026;-74
2023/06/17 08:20:55;;;;;;;7.10;2.88;;;;;;;;;;5000377;28;20579;-73
2023/06/17 08:23:21;;;;;;;6.10;2.97;;;;;;;;;;4990239;28;20049;-73
2023/06/17 08:25:49;;;;;;;7.45;2.40;;;;;;;;;;4992198;28;20038;-73
2023/06/17 08:28:14;;;;;;;12.95;3.35;;;;;;;;;;4997431;28;20042;-73
2023/06/17 08:30:41;;;;;;;9.27;3.78;;;;;;;;;;4996221;28;20034;-76
2023/06/17 08:33:08;;;;;;;14.55;3.97;;;;;;;;;;4991883;28;20027;-73
2023/06/17 08:35:34;;;;;;;7.50;3.13;;;;;;;;;;4996474;28;20084;-74
2023/06/17 08:38:03;;;;;;;4.60;2.58;;;;;;;;;;4991073;28;20038;-73
2023/06/17 08:40:29;;;;;;;12.55;3.30;;;;;;;;;;4986101;28;20096;-75
2023/06/17 08:43:01;;;;;;;8.77;3.30;;;;;;;;;;4988671;28;20097;-74
2023/06/17 08:45:28;;;;;;;9.15;2.25;;;;;;;;;;4987676;28;20049;-73
2023/06/17 08:47:54;;;;;;;10.00;3.70;;;;;;;;;;4989302;28;20069;-75
2023/06/17 08:50:20;;;;;;;11.15;3.08;;;;;;;;;;4994090;28;20575;-74
2023/06/17 08:52:48;;;;;;;5.32;2.78;;;;;;;;;;4991939;28;20178;-73
2023/06/17 08:55:16;;;;;;;3.97;2.40;;;;;;;;;;4990089;28;20057;-73
2023/06/17 08:57:43;;;;;;;5.75;3.50;;;;;;;;;;4991470;28;20065;-75
2023/06/17 09:00:13;;;;;;;5.28;3.10;;;;;;;;;;4991508;28;20030;-73
2023/06/17 09:02:45;;;;;;;5.00;2.53;;;;;;;;;;4994623;28;20452;-74
2023/06/17 09:05:12;;;;;;;7.30;2.80;;;;;;;;;;4982928;28;20038;-74
2023/06/17 09:07:39;;;;;;;3.95;2.47;;;;;;;;;;4990467;28;20269;-74
2023/06/17 09:10:07;;;;;;;3.75;2.35;;;;;;;;;;4997293;28;20117;-72
2023/06/17 09:12:39;;;;;;;5.13;2.50;;;;;;;;;;4988789;28;20112;-74
2023/06/17 09:15:15;;;;;;;7.15;2.40;;;;;;;;;;4988713;28;20049;-73
2023/06/17 09:17:44;;;;;;;5.38;2.83;;;;;;;;;;4975240;28;20048;-74
2023/06/17 09:20:15;;;;;;;7.60;2.50;;;;;;;;;;4984505;28;20026;-74
2023/06/17 09:22:47;;;;;;;4.85;2.38;;;;;;;;;;4990364;28;20053;-73
2023/06/17 09:25:15;;;;;;;3.75;2.08;;;;;;;;;;4992356;28;20072;-74
2023/06/17 09:27:59;;;;;;;3.20;2.10;;;;;;;;;;4991903;28;20505;-74
2023/06/17 09:30:25;;;;;;;4.47;2.00;;;;;;;;;;4985738;28;20026;-74
2023/06/17 09:32:52;;;;;;;3.42;1.77;;;;;;;;;;4995265;28;20034;-74
2023/06/17 09:35:19;;;;;;;4.30;1.98;;;;;;;;;;4993869;28;20404;-73
2023/06/17 09:37:53;;;;;;;2.85;1.90;;;;;;;;;;4985549;28;20026;-73
2023/06/17 09:40:27;;;;;;;3.70;2.33;;;;;;;;;;4985520;28;20258;-74
2023/06/17 09:42:53;;;;;;;4.00;1.90;;;;;;;;;;4983099;28;20034;-72
2023/06/17 09:45:24;;;;;;;3.58;2.05;;;;;;;;;;4989857;28;20045;-73
2023/06/17 09:47:52;;;;;;;2.40;1.80;;;;;;;;;;4987737;28;20037;-73
2023/06/17 09:50:20;;;;;;;3.65;1.90;;;;;;;;;;4991704;28;20022;-74
2023/06/17 09:52:52;;;;;;;3.30;1.70;;;;;;;;;;4986284;28;20034;-73
2023/06/17 09:55:20;;;;;;;4.00;1.70;;;;;;;;;;4985947;28;20041;-75
2023/06/17 09:57:53;;;;;;;3.72;1.90;;;;;;;;;;4995737;28;20038;-74
2023/06/17 10:11:51;;;;;;;3.97;1.88;;;;;;;;;;4993495;28;20555;-75
2023/06/17 10:14:23;;;;;;;4.30;2.03;;;;;;;;;;4992120;28;20519;-73
2023/06/17 10:16:50;;;;;;;3.65;2.08;;;;;;;;;;4985880;28;20129;-73
2023/06/17 10:19:22;;;;;;;3.80;1.77;;;;;;;;;;4996146;28;20133;-73
2023/06/17 10:21:52;;;;;;;3.50;1.80;;;;;;;;;;4991268;28;20065;-74
2023/06/17 10:24:20;;;;;;;3.85;1.80;;;;;;;;;;4986339;28;20354;-75
2023/06/17 10:26:50;;;;;;;2.72;1.80;;;;;;;;;;4997395;28;20037;-73
2023/06/17 10:29:16;;;;;;;4.00;2.10;;;;;;;;;;4995720;28;20049;-74
2023/06/17 10:31:42;;;;;;;4.47;2.40;;;;;;;;;;4990899;28;20399;-73
2023/06/17 10:34:21;;;;;;;6.00;2.28;;;;;;;;;;4999753;28;20029;-72
2023/06/17 10:36:51;;;;;;;4.80;2.10;;;;;;;;;;4995971;28;20069;-76
2023/06/17 10:39:17;;;;;;;3.65;2.08;;;;;;;;;;4991540;28;20026;-73
2023/06/17 10:41:50;;;;;;;6.38;1.98;;;;;;;;;;5000664;28;20049;-75
2023/06/17 10:44:28;;;;;;;4.72;1.90;;;;;;;;;;4993456;28;20030;-76
2023/06/17 10:46:55;;;;;;;5.22;1.60;;;;;;;;;;4993360;28;20045;-75
2023/06/17 10:49:21;;;;;;;2.85;1.80;;;;;;;;;;4997279;28;20060;-73
2023/06/17 10:51:50;;;;;;;3.35;1.80;;;;;;;;;;4995388;28;20472;-74
2023/06/17 10:54:34;;;;;;;3.97;2.08;;;;;;;;;;4997904;28;20404;-76
2023/06/17 10:57:01;;;;;;;2.88;1.80;;;;;;;;;;4998663;28;20053;-74
2023/06/17 10:59:29;;;;;;;3.35;2.15;;;;;;;;;;4989259;28;20038;-73
2023/06/17 11:02:03;;;;;;;3.67;1.83;;;;;;;;;;5000699;28;20037;-72
2023/06/17 11:04:30;;;;;;;5.82;2.70;;;;;;;;;;4995298;28;20034;-72
2023/06/17 11:06:58;;;;;;;5.03;2.25;;;;;;;;;;5000157;28;20037;-73
2023/06/17 11:09:27;;;;;;;4.97;2.40;;;;;;;;;;4990703;28;20031;-73
2023/06/17 11:11:54;;;;;;;4.32;2.35;;;;;;;;;;4999625;28;20033;-73
2023/06/17 11:14:33;;;;;;;2.28;1.90;;;;;;;;;;5004704;28;20114;-73
2023/06/17 11:16:59;;;;;;;4.28;2.30;;;;;;;;;;4982063;28;20385;-72
2023/06/17 11:19:24;;;;;;;4.03;1.92;;;;;;;;;;4992580;28;20037;-73
2023/06/17 11:21:57;;;;;;;4.25;2.40;;;;;;;;;;4992738;28;20078;-72
2023/06/17 11:24:23;;;;;;;5.87;2.33;;;;;;;;;;4994106;28;20457;-72
2023/06/17 11:26:49;;;;;;;4.68;2.40;;;;;;;;;;4992217;28;20018;-73
2023/06/17 11:29:15;;;;;;;4.22;2.47;;;;;;;;;;4995373;28;20022;-72
2023/06/17 11:31:41;;;;;;;4.35;2.15;;;;;;;;;;5015921;28;20125;-72
2023/06/17 11:34:08;;;;;;;2.90;2.17;;;;;;;;;;5003706;28;20095;-73
2023/06/17 11:36:35;;;;;;;5.05;2.35;;;;;;;;;;4989407;28;20081;-71
2023/06/17 11:39:02;;;;;;;3.60;2.30;;;;;;;;;;4992469;28;20054;-75
2023/06/17 11:41:28;;;;;;;4.43;2.50;;;;;;;;;;4999749;28;20026;-73
2023/06/17 11:43:55;;;;;;;5.05;2.65;;;;;;;;;;5001728;28;20037;-76
2023/06/17 11:46:24;;;;;;;4.28;2.40;;;;;;;;;;4995846;28;20491;-74
2023/06/17 11:48:50;;;;;;;5.13;3.20;;;;;;;;;;5005749;28;20034;-73
2023/06/17 11:51:17;;;;;;;4.30;2.78;;;;;;;;;;4993092;28;21280;-75
2023/06/17 11:53:48;;;;;;;3.97;2.50;;;;;;;;;;4991269;28;20049;-77
2023/06/17 11:56:17;;;;;;;4.78;2.83;;;;;;;;;;4995155;28;20051;-73
2023/06/17 11:58:44;;;;;;;3.85;2.75;;;;;;;;;;4994097;28;20099;-77
2023/06/17 12:01:12;;;;;;;3.75;2.60;;;;;;;;;;4999116;28;20038;-74
2023/06/17 12:03:43;;;;;;;4.85;2.90;;;;;;;;;;5000381;28;20027;-74
2023/06/17 12:06:15;;;;;;;4.97;3.20;;;;;;;;;;5002269;28;20495;-73
2023/06/17 12:08:42;;;;;;;4.93;3.03;;;;;;;;;;4989954;28;20073;-75
2023/06/17 12:11:27;;;;;;;6.25;2.70;;;;;;;;;;5000655;28;20054;-73
2023/06/17 12:13:57;;;;;;;5.43;3.40;;;;;;;;;;4998846;28;20030;-74
2023/06/17 12:16:32;;;;;;;6.47;3.00;;;;;;;;;;5000763;28;20064;-75
2023/06/17 12:18:59;;;;;;;6.03;2.38;;;;;;;;;;4986273;28;20059;-74
2023/06/17 12:21:25;;;;;;;4.47;2.40;;;;;;;;;;4996652;28;20051;-74
2023/06/17 12:23:53;;;;;;;5.00;2.58;;;;;;;;;;4991185;28;20038;-74
2023/06/17 12:26:23;;;;;;;3.88;2.45;;;;;;;;;;4992344;28;20106;-72
2023/06/17 12:28:50;;;;;;;4.85;2.75;;;;;;;;;;4994295;28;20431;-74
2023/06/17 12:31:17;;;;;;;6.60;2.75;;;;;;;;;;4995268;28;20434;-74
2023/06/17 12:33:46;;;;;;;5.82;2.67;;;;;;;;;;4996162;28;20558;-74
2023/06/17 12:36:19;;;;;;;4.53;2.45;;;;;;;;;;5001028;28;20037;-74
2023/06/17 12:38:46;;;;;;;5.25;2.85;;;;;;;;;;4992524;28;20104;-75
2023/06/17 12:41:12;;;;;;;4.95;2.80;;;;;;;;;;4992695;28;20473;-73
2023/06/17 12:43:42;;;;;;;6.00;2.50;;;;;;;;;;4992969;28;20136;-74
2023/06/17 12:46:08;;;;;;;5.15;2.60;;;;;;;;;;4971105;28;20074;-75
2023/06/17 12:48:35;;;;;;;4.32;2.22;;;;;;;;;;4993910;28;20430;-76
2023/06/17 12:51:06;;;;;;;7.32;3.05;;;;;;;;;;4991212;28;20700;-73
2023/06/17 12:53:48;;;;;;;2.97;2.08;;;;;;;;;;4993408;28;20042;-76
2023/06/17 12:56:13;;;;;;;4.05;2.30;;;;;;;;;;4991814;28;20025;-75
2023/06/17 12:58:41;;;;;;;3.13;2.28;;;;;;;;;;4991771;28;20109;-75
2023/06/17 13:01:06;;;;;;;5.30;2.88;;;;;;;;;;4991319;28;20031;-75
2023/06/17 13:03:36;;;;;;;4.50;2.75;;;;;;;;;;4992689;28;20157;-75
2023/06/17 13:06:02;;;;;;;3.67;2.72;;;;;;;;;;5003110;28;20034;-72
2023/06/17 13:08:28;;;;;;;9.07;3.17;;;;;;;;;;4994810;28;20109;-77
2023/06/17 13:10:56;;;;;;;5.28;2.60;;;;;;;;;;4993229;28;20086;-75
2023/06/17 13:13:22;;;;;;;5.22;2.50;;;;;;;;;;4993601;28;20408;-73
2023/06/17 13:15:50;;;;;;;4.88;2.72;;;;;;;;;;4992905;28;20061;-75
2023/06/17 13:18:16;;;;;;;4.65;2.30;;;;;;;;;;4993676;28;20027;-73
2023/06/17 13:20:42;;;;;;;5.72;2.50;;;;;;;;;;4990987;28;20050;-76
2023/06/17 13:23:08;;;;;;;3.65;2.10;;;;;;;;;;4987060;28;20053;-74
2023/06/17 13:25:34;;;;;;;5.25;2.22;;;;;;;;;;4989740;28;20053;-76
2023/06/17 13:28:00;;;;;;;7.65;2.33;;;;;;;;;;4998531;28;20527;-76
2023/06/17 13:30:26;;;;;;;4.70;2.47;;;;;;;;;;4994367;28;20143;-78
2023/06/17 13:32:53;;;;;;;4.57;2.20;;;;;;;;;;4998405;28;20066;-76
2023/06/17 13:35:21;;;;;;;5.68;2.20;;;;;;;;;;4997176;28;20446;-75
2023/06/17 13:37:47;;;;;;;4.07;2.20;;;;;;;;;;4988501;28;20113;-76
2023/06/17 13:40:13;;;;;;;6.85;2.72;;;;;;;;;;4994790;28;20125;-75
2023/06/17 13:42:38;;;;;;;7.90;2.58;;;;;;;;;;4994028;28;20097;-75
2023/06/17 13:45:05;;;;;;;7.15;2.38;;;;;;;;;;4994150;28;20466;-74
2023/06/17 13:47:32;;;;;;;4.40;2.15;;;;;;;;;;4996154;28;20028;-75
2023/06/17 13:49:58;;;;;;;5.55;2.30;;;;;;;;;;4988757;28;20092;-73
2023/06/17 13:52:23;;;;;;;4.15;2.25;;;;;;;;;;4997928;28;20031;-75
2023/06/17 13:54:49;;;;;;;7.03;2.85;;;;;;;;;;4991514;28;20456;-74
2023/06/17 13:57:15;;;;;;;3.72;2.40;;;;;;;;;;4991950;28;20030;-74
2023/06/17 13:59:42;;;;;;;5.47;2.35;;;;;;;;;;4994677;28;20041;-74
2023/06/17 14:02:08;;;;;;;4.90;2.80;;;;;;;;;;4989936;28;20076;-73
2023/06/17 14:04:34;;;;;;;8.00;3.08;;;;;;;;;;4996278;28;20484;-74
2023/06/17 14:07:00;;;;;;;4.13;2.55;;;;;;;;;;5007446;28;20060;-74
2023/06/17 14:09:26;;;;;;;5.95;2.60;;;;;;;;;;5000019;28;20038;-74
2023/06/17 14:11:52;;;;;;;5.40;2.63;;;;;;;;;;4989860;28;20037;-73
2023/06/17 14:14:17;;;;;;;3.72;2.47;;;;;;;;;;4989248;28;20040;-74
2023/06/17 14:16:43;;;;;;;5.38;2.65;;;;;;;;;;4988366;28;20087;-75
2023/06/17 14:19:10;;;;;;;6.28;2.85;;;;;;;;;;4990388;28;20459;-75
2023/06/17 14:21:36;;;;;;;6.65;2.90;;;;;;;;;;4988475;28;20042;-74
2023/06/17 14:24:03;;;;;;;4.13;2.97;;;;;;;;;;5003989;28;20663;-73
2023/06/17 14:26:29;;;;;;;4.93;2.80;;;;;;;;;;5003025;28;20029;-74
2023/06/17 14:28:59;;;;;;;4.95;2.53;;;;;;;;;;4996478;28;20035;-74
2023/06/17 14:31:27;;;;;;;4.40;2.63;;;;;;;;;;4995861;28;20596;-74
2023/06/17 14:33:53;;;;;;;6.50;2.65;;;;;;;;;;4987763;28;20084;-75
2023/06/17 14:36:20;;;;;;;5.82;3.30;;;;;;;;;;5000370;28;20069;-75
2023/06/17 14:38:47;;;;;;;4.88;2.92;;;;;;;;;;4987258;28;20069;-74
2023/06/17 14:41:13;;;;;;;5.70;2.78;;;;;;;;;;4992158;28;20030;-76
2023/06/17 14:43:41;;;;;;;6.60;3.90;;;;;;;;;;4986618;28;20408;-75
2023/06/17 14:46:08;;;;;;;6.93;3.60;;;;;;;;;;4994357;28;20030;-75
2023/06/17 14:48:36;;;;;;;5.78;3.42;;;;;;;;;;4994492;28;20070;-74
2023/06/17 14:51:02;;;;;;;7.10;4.35;;;;;;;;;;4990446;28;20029;-75
2023/06/17 14:53:31;;;;;;;7.13;4.85;;;;;;;;;;4987860;28;20035;-76